createdAt,value
2022-12-20T00:01:53.777Z,16.98
2022-12-20T00:04:21.733Z,17.48
2022-12-20T00:06:49.923Z,17.85
2022-12-20T00:09:17.803Z,18.40
2022-12-20T00:11:45.676Z,18.38
2022-12-20T00:14:14.905Z,18.05
2022-12-20T00:16:42.771Z,18.58
2022-12-20T00:19:11.883Z,18.67
2022-12-20T00:21:39.995Z,21.38
2022-12-20T00:24:08.563Z,20.25
2022-12-20T00:26:36.597Z,17.98
2022-12-20T00:29:04.888Z,16.25
2022-12-20T00:31:35.263Z,17.92
2022-12-20T00:34:03.395Z,17.65
2022-12-20T00:36:32.385Z,19.13
2022-12-20T00:39:00.616Z,19.02
2022-12-20T00:41:29.185Z,19.42
2022-12-20T00:43:58.103Z,19.42
2022-12-20T00:46:26.153Z,18.92
2022-12-20T00:48:55.787Z,17.52
2022-12-20T00:51:25.571Z,18.50
2022-12-20T00:53:53.559Z,18.25
2022-12-20T00:56:21.437Z,17.55
2022-12-20T00:58:49.853Z,17.65
2022-12-20T01:01:20.425Z,17.65
2022-12-20T01:03:49.666Z,17.45
2022-12-20T01:06:19.034Z,19.75
2022-12-20T01:08:47.083Z,16.38
2022-12-20T01:11:16.506Z,17.73
2022-12-20T01:13:45.438Z,16.77
2022-12-20T01:16:14.624Z,16.27
2022-12-20T01:18:42.524Z,16.45
2022-12-20T01:21:12.421Z,17.08
2022-12-20T01:23:41.716Z,18.30
2022-12-20T01:26:12.068Z,17.45
2022-12-20T01:28:41.067Z,17.70
2022-12-20T01:31:09.619Z,17.10
2022-12-20T01:33:37.677Z,17.25
2022-12-20T01:36:07.098Z,16.52
2022-12-20T01:38:35.904Z,16.30
2022-12-20T01:41:05.234Z,15.75
2022-12-20T01:43:46.956Z,17.33
2022-12-20T01:46:15.009Z,15.88
2022-12-20T01:48:43.427Z,15.52
2022-12-20T01:51:12.019Z,16.70
2022-12-20T01:53:39.902Z,14.32
2022-12-20T01:56:09.585Z,18.83
2022-12-20T01:58:37.598Z,15.95
2022-12-20T02:01:05.564Z,20.52
2022-12-20T02:03:33.630Z,17.02
2022-12-20T02:06:15.239Z,18.23
2022-12-20T02:08:43.055Z,15.93
2022-12-20T02:11:16.973Z,17.40
2022-12-20T02:13:47.066Z,14.85
2022-12-20T02:16:15.884Z,13.80
2022-12-20T02:18:45.621Z,16.08
2022-12-20T02:21:24.288Z,15.10
2022-12-20T02:24:17.968Z,15.63
2022-12-20T02:27:20.883Z,16.63
2022-12-20T02:30:13.110Z,15.57
2022-12-20T02:32:44.172Z,14.27
2022-12-20T02:35:13.811Z,14.32
2022-12-20T02:37:49.268Z,15.18
2022-12-20T02:40:19.095Z,14.45
2022-12-20T02:42:46.945Z,16.00
2022-12-20T02:45:15.184Z,14.55
2022-12-20T02:47:47.183Z,14.65
2022-12-20T02:50:15.275Z,16.50
2022-12-20T02:52:43.110Z,15.48
2022-12-20T02:55:10.974Z,15.57
2022-12-20T02:57:41.984Z,14.02
2022-12-20T03:00:11.082Z,14.00
2022-12-20T03:02:58.006Z,15.27
2022-12-20T03:05:27.184Z,13.05
2022-12-20T03:07:55.268Z,14.82
2022-12-20T03:10:25.677Z,14.63
2022-12-20T03:12:53.560Z,15.05
2022-12-20T03:15:21.902Z,14.95
2022-12-20T03:17:54.941Z,14.82
2022-12-20T03:20:23.504Z,14.75
2022-12-20T03:22:51.483Z,14.55
2022-12-20T03:25:19.367Z,14.35
2022-12-20T03:27:47.263Z,14.85
2022-12-20T03:30:16.123Z,13.75
2022-12-20T03:32:44.080Z,16.63
2022-12-20T03:35:14.167Z,17.38
2022-12-20T03:37:42.702Z,13.65
2022-12-20T03:40:12.570Z,12.38
2022-12-20T03:42:40.557Z,12.27
2022-12-20T03:45:09.299Z,14.93
2022-12-20T03:47:37.439Z,11.77
2022-12-20T03:50:06.647Z,13.88
2022-12-20T03:52:37.488Z,13.57
2022-12-20T03:55:06.836Z,12.05
2022-12-20T03:57:42.083Z,12.38
2022-12-20T04:00:23.926Z,13.40
2022-12-20T04:02:56.217Z,13.90
2022-12-20T04:05:24.319Z,13.57
2022-12-20T04:07:53.630Z,12.25
2022-12-20T04:10:21.557Z,14.23
2022-12-20T04:12:49.593Z,11.60
2022-12-20T04:15:18.433Z,12.27
2022-12-20T04:17:47.931Z,11.65
2022-12-20T04:20:22.229Z,12.65
2022-12-20T04:22:59.974Z,13.13
2022-12-20T04:25:27.957Z,12.25
2022-12-20T04:27:56.860Z,12.25
2022-12-20T04:30:24.812Z,11.55
2022-12-20T04:32:54.687Z,11.55
2022-12-20T04:35:23.463Z,12.18
2022-12-20T04:37:51.458Z,11.73
2022-12-20T04:40:21.121Z,10.70
2022-12-20T04:42:55.573Z,11.38
2022-12-20T04:45:23.695Z,13.02
2022-12-20T04:47:53.614Z,12.88
2022-12-20T04:50:27.414Z,12.43
2022-12-20T04:53:12.850Z,11.27
2022-12-20T04:55:42.991Z,11.57
2022-12-20T04:58:10.934Z,10.75
2022-12-20T05:00:41.407Z,11.10
2022-12-20T05:03:23.344Z,12.48
2022-12-20T05:05:51.375Z,11.32
2022-12-20T05:08:19.572Z,12.02
2022-12-20T05:10:50.074Z,13.27
2022-12-20T05:13:17.963Z,12.30
2022-12-20T05:15:47.296Z,11.32
2022-12-20T05:18:15.267Z,11.15
2022-12-20T05:21:15.470Z,11.38
2022-12-20T05:24:03.317Z,10.10
2022-12-20T05:26:35.411Z,10.68
2022-12-20T05:29:03.382Z,11.05
2022-12-20T05:31:31.912Z,9.45
2022-12-20T05:34:00.263Z,11.52
2022-12-20T05:36:31.757Z,9.85
2022-12-20T05:39:04.237Z,9.25
2022-12-20T05:41:35.618Z,9.75
2022-12-20T05:44:04.219Z,9.98
2022-12-20T05:46:35.346Z,10.75
2022-12-20T05:49:07.032Z,11.00
2022-12-20T05:51:35.392Z,10.57
2022-12-20T05:54:12.620Z,9.40
2022-12-20T05:56:50.833Z,10.48
2022-12-20T05:59:23.777Z,10.60
2022-12-20T06:01:51.792Z,10.07
2022-12-20T06:04:19.914Z,9.45
2022-12-20T06:06:48.665Z,11.02
2022-12-20T06:09:19.643Z,9.77
2022-12-20T06:11:59.369Z,10.48
2022-12-20T06:14:31.167Z,9.73
2022-12-20T06:17:00.116Z,9.52
2022-12-20T06:19:28.069Z,11.32
2022-12-20T06:21:58.500Z,11.38
2022-12-20T06:24:34.050Z,10.73
2022-12-20T06:27:03.957Z,12.05
2022-12-20T06:29:31.990Z,10.00
2022-12-20T06:32:06.075Z,9.18
2022-12-20T06:34:34.040Z,16.55
2022-12-20T06:37:02.695Z,48.53
2022-12-20T06:39:34.010Z,37.45
2022-12-20T06:42:07.765Z,56.38
2022-12-20T06:44:36.892Z,47.83
2022-12-20T06:47:04.872Z,57.67
2022-12-20T06:49:32.804Z,36.95
2022-12-20T06:52:02.688Z,45.60
2022-12-20T06:54:50.796Z,52.55
2022-12-20T06:57:23.103Z,52.85
2022-12-20T06:59:52.363Z,48.33
2022-12-20T07:02:20.280Z,35.85
2022-12-20T07:04:48.208Z,31.30
2022-12-20T07:07:17.218Z,32.63
2022-12-20T07:09:45.160Z,30.15
2022-12-20T07:12:13.060Z,29.40
2022-12-20T07:14:42.286Z,24.20
2022-12-20T07:17:10.228Z,24.17
2022-12-20T07:19:38.171Z,24.17
2022-12-20T07:22:06.539Z,23.77
2022-12-20T07:24:34.510Z,22.60
2022-12-20T07:27:02.484Z,21.10
2022-12-20T07:29:30.710Z,18.90
2022-12-20T07:32:00.174Z,18.40
2022-12-20T07:34:28.161Z,21.40
2022-12-20T07:36:56.066Z,18.77
2022-12-20T07:39:24.683Z,18.50
2022-12-20T07:41:54.784Z,16.60
2022-12-20T07:44:23.878Z,16.13
2022-12-20T07:46:52.026Z,19.73
2022-12-20T07:49:22.084Z,17.27
2022-12-20T07:51:51.360Z,20.42
2022-12-20T07:54:19.830Z,15.75
2022-12-20T07:56:49.184Z,17.17
2022-12-20T07:59:18.508Z,17.15
2022-12-20T08:01:46.440Z,16.33
2022-12-20T08:04:16.709Z,18.92
2022-12-20T08:06:46.444Z,16.33
2022-12-20T08:09:14.314Z,14.57
2022-12-20T08:11:42.583Z,15.70
2022-12-20T08:14:10.514Z,15.77
2022-12-20T08:16:38.605Z,13.60
2022-12-20T08:19:06.547Z,15.48
2022-12-20T08:21:34.428Z,13.27
2022-12-20T08:24:03.638Z,12.85
2022-12-20T08:26:31.495Z,15.38
2022-12-20T08:28:59.485Z,14.68
2022-12-20T08:31:27.513Z,14.00
2022-12-20T08:33:55.637Z,14.10
2022-12-20T08:36:23.631Z,13.65
2022-12-20T08:38:51.548Z,12.50
2022-12-20T08:41:20.814Z,11.85
2022-12-20T08:43:48.733Z,13.73
2022-12-20T08:46:16.836Z,11.90
2022-12-20T08:48:44.766Z,14.02
2022-12-20T08:51:13.086Z,12.25
2022-12-20T08:53:41.329Z,13.15
2022-12-20T08:56:11.018Z,13.50
2022-12-20T08:58:40.510Z,11.90
2022-12-20T09:01:11.302Z,13.52
2022-12-20T09:03:39.396Z,12.13
2022-12-20T09:06:08.205Z,12.35
2022-12-20T09:08:36.186Z,13.38
2022-12-20T09:11:07.812Z,13.32
2022-12-20T09:13:43.173Z,12.40
2022-12-20T09:16:14.386Z,18.17
2022-12-20T09:18:42.499Z,11.93
2022-12-20T09:21:10.523Z,11.35
2022-12-20T09:23:38.964Z,17.45
2022-12-20T09:26:07.555Z,14.50
2022-12-20T09:28:35.538Z,19.88
2022-12-20T09:31:04.799Z,21.33
2022-12-20T09:33:34.428Z,19.25
2022-12-20T09:36:02.504Z,15.98
2022-12-20T09:38:31.172Z,14.65
2022-12-20T09:41:00.772Z,19.02
2022-12-20T09:43:28.701Z,17.70
2022-12-20T09:45:57.989Z,14.82
2022-12-20T09:48:30.308Z,18.05
2022-12-20T09:51:08.508Z,17.05
2022-12-20T09:53:40.198Z,19.42
2022-12-20T09:56:11.510Z,15.68
2022-12-20T09:58:55.213Z,20.30
2022-12-20T10:01:26.142Z,20.20
2022-12-20T10:03:55.926Z,14.43
2022-12-20T10:06:31.155Z,16.27
2022-12-20T10:09:00.716Z,17.55
2022-12-20T10:11:51.114Z,20.08
2022-12-20T10:14:31.858Z,16.48
2022-12-20T10:17:02.089Z,15.68
2022-12-20T10:20:01.777Z,16.42
2022-12-20T10:22:33.900Z,15.68
2022-12-20T10:25:07.783Z,15.20
2022-12-20T10:27:38.713Z,15.80
2022-12-20T10:30:11.810Z,18.00
2022-12-20T10:32:39.671Z,20.33
2022-12-20T10:35:22.493Z,18.85
2022-12-20T10:38:08.505Z,23.85
2022-12-20T10:41:20.276Z,20.45
2022-12-20T10:43:26.338Z,21.52
2022-12-20T10:45:58.687Z,17.67
2022-12-20T10:48:31.790Z,21.77
2022-12-20T10:51:03.085Z,20.92
2022-12-20T10:53:32.534Z,19.45
2022-12-20T10:56:14.373Z,20.55
2022-12-20T10:58:42.267Z,16.65
2022-12-20T11:01:14.360Z,19.13
2022-12-20T11:03:51.808Z,18.73
2022-12-20T11:06:20.022Z,19.95
2022-12-20T11:08:53.880Z,21.95
2022-12-20T11:11:27.454Z,23.20
2022-12-20T11:13:55.313Z,15.95
2022-12-20T11:16:34.965Z,15.82
2022-12-20T11:19:31.902Z,15.73
2022-12-20T11:22:03.065Z,16.52
2022-12-20T11:24:34.338Z,20.00
2022-12-20T11:27:15.239Z,17.83
2022-12-20T11:30:07.479Z,19.67
2022-12-20T11:32:48.936Z,16.50
2022-12-20T11:35:19.813Z,18.00
2022-12-20T11:37:50.994Z,14.00
2022-12-20T11:40:28.419Z,16.95
2022-12-20T11:43:05.748Z,20.45
2022-12-20T11:45:38.750Z,16.45
2022-12-20T11:48:21.287Z,16.08
2022-12-20T11:51:00.163Z,16.83
2022-12-20T11:53:29.487Z,20.25
2022-12-20T11:56:00.804Z,26.75
2022-12-20T11:58:30.188Z,32.25
2022-12-20T12:01:02.277Z,25.83
2022-12-20T12:03:33.790Z,28.70
2022-12-20T12:06:03.449Z,24.20
2022-12-20T12:08:35.285Z,26.80
2022-12-20T12:11:07.587Z,22.15
2022-12-20T12:13:37.493Z,22.52
2022-12-20T12:16:07.492Z,26.38
2022-12-20T12:18:35.892Z,26.08
2022-12-20T12:21:09.321Z,21.95
2022-12-20T12:23:41.041Z,22.67
2022-12-20T12:26:13.601Z,24.77
2022-12-20T12:28:41.445Z,28.65
2022-12-20T12:31:12.226Z,20.88
2022-12-20T12:33:43.413Z,22.42
2022-12-20T12:36:29.617Z,19.55
2022-12-20T12:39:26.277Z,18.42
2022-12-20T12:42:21.644Z,19.65
2022-12-20T12:44:50.731Z,20.10
2022-12-20T12:47:21.614Z,22.23
2022-12-20T12:49:50.434Z,22.05
2022-12-20T12:52:47.097Z,19.05
2022-12-20T12:55:37.712Z,18.25
2022-12-20T12:58:41.494Z,21.58
2022-12-20T13:01:12.811Z,17.85
2022-12-20T13:03:43.043Z,16.50
2022-12-20T13:06:55.008Z,19.10
2022-12-20T13:09:37.875Z,18.83
2022-12-20T13:12:38.292Z,20.27
2022-12-20T13:15:44.660Z,17.42
2022-12-20T13:18:25.824Z,18.52
2022-12-20T13:21:30.263Z,18.55
2022-12-20T13:24:38.178Z,18.58
2022-12-20T13:27:25.829Z,17.70
2022-12-20T13:30:02.461Z,17.35
2022-12-20T13:33:07.734Z,15.13
2022-12-20T13:35:48.449Z,17.80
2022-12-20T13:38:39.155Z,16.15
2022-12-20T13:41:12.851Z,15.73
2022-12-20T13:43:43.648Z,18.52
2022-12-20T13:46:14.665Z,17.73
2022-12-20T13:48:48.001Z,14.57
2022-12-20T13:51:18.913Z,17.80
2022-12-20T13:53:52.754Z,15.50
2022-12-20T13:56:34.801Z,15.27
2022-12-20T13:59:06.048Z,15.93
2022-12-20T14:01:34.483Z,14.02
2022-12-20T14:04:07.268Z,16.38
2022-12-20T14:06:36.698Z,17.65
2022-12-20T14:09:05.831Z,18.40
2022-12-20T14:11:33.801Z,17.08
2022-12-20T14:14:02.973Z,14.52
2022-12-20T14:16:31.860Z,18.42
2022-12-20T14:19:03.466Z,20.30
2022-12-20T14:21:31.360Z,22.08
2022-12-20T14:24:00.702Z,17.45
2022-12-20T14:26:29.415Z,17.67
2022-12-20T14:28:57.754Z,15.68
2022-12-20T14:31:27.124Z,18.35
2022-12-20T14:34:03.181Z,16.98
2022-12-20T14:36:31.736Z,14.95
2022-12-20T14:39:01.012Z,16.88
2022-12-20T14:41:34.941Z,18.33
2022-12-20T14:44:05.138Z,15.75
2022-12-20T14:46:33.105Z,16.80
2022-12-20T14:49:12.954Z,17.67
2022-12-20T14:51:40.870Z,21.90
2022-12-20T14:54:32.392Z,16.15
2022-12-20T14:56:59.801Z,16.17
2022-12-20T14:59:28.613Z,18.45
2022-12-20T15:01:56.556Z,17.05
2022-12-20T15:04:26.455Z,17.90
2022-12-20T15:06:54.347Z,15.60
2022-12-20T15:09:23.605Z,19.13
2022-12-20T15:11:51.711Z,16.60
2022-12-20T15:14:27.359Z,18.50
2022-12-20T15:16:55.300Z,15.13
2022-12-20T15:19:23.183Z,15.07
2022-12-20T15:21:51.505Z,17.20
2022-12-20T15:24:21.874Z,17.05
2022-12-20T15:26:51.166Z,17.13
2022-12-20T15:29:19.955Z,17.17
2022-12-20T15:31:47.933Z,14.98
2022-12-20T15:34:16.889Z,17.05
2022-12-20T15:36:44.774Z,15.60
2022-12-20T15:39:13.873Z,14.80
2022-12-20T15:41:43.221Z,13.85
2022-12-20T15:44:15.513Z,15.05
2022-12-20T15:46:44.496Z,16.67
2022-12-20T15:49:16.017Z,17.58
2022-12-20T15:51:44.395Z,16.90
2022-12-20T15:54:16.911Z,16.27
2022-12-20T15:56:44.811Z,17.08
2022-12-20T15:59:48.808Z,14.27
2022-12-20T16:02:01.939Z,17.35
2022-12-20T16:04:30.017Z,16.50
2022-12-20T16:06:57.998Z,13.70
2022-12-20T16:09:26.022Z,18.55
2022-12-20T16:11:54.021Z,16.38
2022-12-20T16:14:23.579Z,16.50
2022-12-20T16:16:51.550Z,16.30
2022-12-20T16:19:19.390Z,17.15
2022-12-20T16:21:48.411Z,15.68
2022-12-20T16:24:17.209Z,17.15
2022-12-20T16:26:45.583Z,14.57
2022-12-20T16:29:13.464Z,16.20
2022-12-20T16:31:43.290Z,14.93
2022-12-20T16:34:13.441Z,16.05
2022-12-20T16:36:41.379Z,16.98
2022-12-20T16:39:10.197Z,15.75
2022-12-20T16:41:38.377Z,16.48
2022-12-20T16:44:06.806Z,16.30
2022-12-20T16:46:34.808Z,16.02
2022-12-20T16:49:04.196Z,13.57
2022-12-20T16:51:32.966Z,15.80
2022-12-20T16:54:18.986Z,16.05
2022-12-20T16:56:48.230Z,15.95
2022-12-20T16:59:19.180Z,14.55
2022-12-20T17:01:48.679Z,15.10
2022-12-20T17:04:18.915Z,14.77
2022-12-20T17:06:46.919Z,16.63
2022-12-20T17:12:01.247Z,16.13
2022-12-20T17:14:29.233Z,17.67
2022-12-20T17:16:57.109Z,16.88
2022-12-20T17:19:26.439Z,19.27
2022-12-20T17:24:39.853Z,17.05
2022-12-20T17:27:07.770Z,13.93
2022-12-20T17:29:35.710Z,16.63
2022-12-20T17:32:03.962Z,14.45
2022-12-20T17:34:33.331Z,18.13
2022-12-20T17:37:01.229Z,16.10
2022-12-20T17:39:29.213Z,14.82
2022-12-20T17:41:57.118Z,15.35
2022-12-20T17:44:26.344Z,16.15
2022-12-20T17:46:54.492Z,16.55
2022-12-20T17:49:23.003Z,15.00
2022-12-20T17:51:52.504Z,14.52
2022-12-20T17:54:21.466Z,14.98
2022-12-20T17:56:49.738Z,14.07
2022-12-20T17:59:17.737Z,16.25
2022-12-20T18:01:45.969Z,15.57
2022-12-20T18:04:15.463Z,14.30
2022-12-20T18:06:44.731Z,14.45
2022-12-20T18:09:15.433Z,16.08
2022-12-20T18:11:43.502Z,14.20
2022-12-20T18:14:11.480Z,16.60
2022-12-20T18:16:40.367Z,16.33
2022-12-20T18:19:08.455Z,15.93
2022-12-20T18:21:36.478Z,14.98
2022-12-20T18:24:04.670Z,15.93
2022-12-20T18:26:33.983Z,16.15
2022-12-20T18:29:03.161Z,16.50
2022-12-20T18:31:32.395Z,13.73
2022-12-20T18:34:00.408Z,20.50
2022-12-20T18:36:29.587Z,14.35
2022-12-20T18:38:58.241Z,14.93
2022-12-20T18:41:28.103Z,17.85
2022-12-20T18:43:59.632Z,16.90
2022-12-20T18:46:27.640Z,14.73
2022-12-20T18:48:58.516Z,16.90
2022-12-20T18:51:27.648Z,20.05
2022-12-20T18:53:56.920Z,19.70
2022-12-20T18:56:28.705Z,24.58
2022-12-20T18:59:03.018Z,18.73
2022-12-20T19:01:36.201Z,19.67
2022-12-20T19:04:05.203Z,16.85
2022-12-20T19:06:33.240Z,17.30
2022-12-20T19:09:01.228Z,16.30
2022-12-20T19:11:29.300Z,16.08
2022-12-20T19:13:58.508Z,17.10
2022-12-20T19:16:28.207Z,16.40
2022-12-20T19:18:58.505Z,19.00
2022-12-20T19:21:27.203Z,15.68
2022-12-20T19:23:56.617Z,17.77
2022-12-20T19:26:25.279Z,14.77
2022-12-20T19:28:53.200Z,17.45
2022-12-20T19:31:23.935Z,14.90
2022-12-20T19:33:52.789Z,15.63
2022-12-20T19:36:21.910Z,17.23
2022-12-20T19:38:50.628Z,17.33
2022-12-20T19:41:18.820Z,16.75
2022-12-20T19:43:47.687Z,17.55
2022-12-20T19:46:16.339Z,19.77
2022-12-20T19:48:45.573Z,16.25
2022-12-20T19:51:15.460Z,14.88
2022-12-20T19:53:44.430Z,17.15
2022-12-20T19:56:12.768Z,17.35
2022-12-20T19:58:40.851Z,18.60
2022-12-20T20:01:09.390Z,15.85
2022-12-20T20:03:38.085Z,21.65
2022-12-20T20:06:07.944Z,16.77
2022-12-20T20:08:35.984Z,20.80
2022-12-20T20:11:09.440Z,16.95
2022-12-20T20:13:38.524Z,17.95
2022-12-20T20:16:06.884Z,20.63
2022-12-20T20:18:35.345Z,21.15
2022-12-20T20:21:08.348Z,17.27
2022-12-20T20:23:36.598Z,18.35
2022-12-20T20:26:08.423Z,19.13
2022-12-20T20:28:43.689Z,15.48
2022-12-20T20:31:13.506Z,19.42
2022-12-20T20:33:41.765Z,14.88
2022-12-20T20:36:13.302Z,18.10
2022-12-20T20:38:41.207Z,18.02
2022-12-20T20:41:09.113Z,16.05
2022-12-20T20:43:38.177Z,16.50
2022-12-20T20:46:06.927Z,16.75
2022-12-20T20:48:34.941Z,19.65
2022-12-20T20:51:02.841Z,18.58
2022-12-20T20:53:34.158Z,24.02
2022-12-20T20:56:02.532Z,27.80
2022-12-20T20:58:30.833Z,30.08
2022-12-20T21:00:59.654Z,34.20
2022-12-20T21:03:28.924Z,25.88
2022-12-20T21:08:46.263Z,24.85
2022-12-20T21:11:14.314Z,28.95
2022-12-20T21:13:42.370Z,27.55
2022-12-20T21:16:10.897Z,28.77
2022-12-20T21:18:38.915Z,31.30
2022-12-20T21:21:08.331Z,30.65
2022-12-20T21:23:36.246Z,22.30
2022-12-20T21:26:05.614Z,26.80
2022-12-20T21:28:33.548Z,23.92
2022-12-20T21:31:01.557Z,21.23
2022-12-20T21:33:29.667Z,22.98
2022-12-20T21:36:01.617Z,28.80
2022-12-20T21:38:29.569Z,21.98
2022-12-20T21:41:01.602Z,17.60
2022-12-20T21:43:30.950Z,27.10
2022-12-20T21:45:58.860Z,18.38
2022-12-20T21:48:27.045Z,20.35
2022-12-20T21:51:01.454Z,19.42
2022-12-20T21:53:29.446Z,22.50
2022-12-20T21:55:57.475Z,19.42
2022-12-20T21:58:25.395Z,26.98
2022-12-20T22:00:55.476Z,18.88
2022-12-20T22:03:23.891Z,19.48
2022-12-20T22:05:53.051Z,18.95
2022-12-20T22:08:21.273Z,17.98
2022-12-20T22:10:50.297Z,21.98
2022-12-20T22:13:18.195Z,20.92
2022-12-20T22:15:46.112Z,19.40
2022-12-20T22:18:15.306Z,19.60
2022-12-20T22:20:45.224Z,19.30
2022-12-20T22:23:13.299Z,18.70
2022-12-20T22:25:41.210Z,19.88
2022-12-20T22:28:09.224Z,18.65
2022-12-20T22:30:40.563Z,17.77
2022-12-20T22:33:08.522Z,20.83
2022-12-20T22:35:37.727Z,14.90
2022-12-20T22:38:05.954Z,15.55
2022-12-20T22:40:33.824Z,21.98
2022-12-20T22:43:01.735Z,21.60
2022-12-20T22:45:29.681Z,17.98
2022-12-20T22:47:57.645Z,17.35
2022-12-20T22:50:25.587Z,22.48
2022-12-20T22:52:54.919Z,18.65
2022-12-20T22:55:22.827Z,17.38
2022-12-20T22:57:50.701Z,18.23
2022-12-20T23:00:18.827Z,17.67
2022-12-20T23:02:46.838Z,17.13
2022-12-20T23:05:15.412Z,16.73
2022-12-20T23:07:43.281Z,17.30
2022-12-20T23:10:34.447Z,15.75
2022-12-20T23:13:20.078Z,16.00
2022-12-20T23:15:48.328Z,16.73
2022-12-20T23:18:16.223Z,16.63
2022-12-20T23:21:00.222Z,15.10
2022-12-20T23:23:28.125Z,17.52
2022-12-20T23:25:57.368Z,19.80
2022-12-20T23:28:25.384Z,21.88
2022-12-20T23:30:53.355Z,15.65
2022-12-20T23:33:21.882Z,17.83
2022-12-20T23:35:57.450Z,16.75
2022-12-20T23:38:25.347Z,15.27
2022-12-20T23:40:53.284Z,14.68
2022-12-20T23:43:22.491Z,17.45
2022-12-20T23:45:50.488Z,14.27
2022-12-20T23:48:18.597Z,18.70
2022-12-20T23:50:46.464Z,14.13
2022-12-20T23:53:14.338Z,17.40
2022-12-20T23:55:42.203Z,15.70
2022-12-20T23:58:10.072Z,17.77
